createdAt,value
2019-03-19T00:02:18.282Z,19.13
2019-03-19T00:04:48.880Z,15.10
2019-03-19T00:07:21.012Z,14.73
2019-03-19T00:09:51.171Z,18.97
2019-03-19T00:12:22.621Z,11.83
2019-03-19T00:14:53.622Z,19.93
2019-03-19T00:17:25.176Z,18.87
2019-03-19T00:19:56.406Z,24.73
2019-03-19T00:22:27.935Z,15.87
2019-03-19T00:24:58.451Z,21.43
2019-03-19T00:27:28.610Z,24.27
2019-03-19T00:29:59.672Z,21.80
2019-03-19T00:32:30.322Z,18.67
2019-03-19T00:35:00.495Z,14.00
2019-03-19T00:37:31.241Z,27.50
2019-03-19T00:40:04.445Z,21.23
2019-03-19T00:42:35.050Z,19.20
2019-03-19T00:45:11.991Z,18.93
2019-03-19T00:47:42.702Z,13.73
2019-03-19T00:50:13.045Z,18.10
2019-03-19T00:52:44.563Z,16.33
2019-03-19T00:55:15.424Z,16.37
2019-03-19T00:57:45.604Z,16.57
2019-03-19T01:00:15.857Z,21.50
2019-03-19T01:02:46.459Z,14.60
2019-03-19T01:05:16.705Z,22.13
2019-03-19T01:07:47.975Z,24.57
2019-03-19T01:10:18.233Z,22.37
2019-03-19T01:12:52.241Z,21.57
2019-03-19T01:15:23.676Z,23.33
2019-03-19T01:17:56.152Z,16.60
2019-03-19T01:20:30.387Z,16.90
2019-03-19T01:23:01.549Z,12.60
2019-03-19T01:25:35.123Z,15.73
2019-03-19T01:28:09.353Z,17.20
2019-03-19T01:30:39.948Z,18.93
2019-03-19T01:33:10.235Z,17.77
2019-03-19T01:35:42.326Z,15.30
2019-03-19T01:38:13.445Z,23.60
2019-03-19T01:40:45.694Z,13.53
2019-03-19T01:43:15.917Z,19.40
2019-03-19T01:45:47.518Z,20.30
2019-03-19T01:48:18.346Z,17.10
2019-03-19T01:50:48.857Z,15.53
2019-03-19T01:53:20.932Z,14.83
2019-03-19T01:55:53.036Z,16.37
2019-03-19T01:58:26.111Z,25.90
2019-03-19T02:00:56.679Z,19.07
2019-03-19T02:03:28.706Z,23.00
2019-03-19T02:06:00.010Z,19.43
2019-03-19T02:08:32.079Z,15.50
2019-03-19T02:11:03.506Z,17.97
2019-03-19T02:13:35.601Z,18.33
2019-03-19T02:16:08.539Z,19.20
2019-03-19T02:18:40.622Z,19.47
2019-03-19T02:21:12.491Z,20.07
2019-03-19T02:23:45.397Z,23.97
2019-03-19T02:26:17.892Z,22.53
2019-03-19T02:28:48.178Z,18.67
2019-03-19T02:31:19.575Z,15.87
2019-03-19T02:33:50.841Z,21.57
2019-03-19T02:36:22.635Z,21.63
2019-03-19T02:38:54.604Z,20.67
2019-03-19T02:41:25.265Z,26.70
2019-03-19T02:43:56.483Z,22.03
2019-03-19T02:46:26.654Z,17.83
2019-03-19T02:48:59.905Z,20.93
2019-03-19T02:51:34.157Z,20.57
2019-03-19T02:54:07.183Z,15.13
2019-03-19T02:56:41.881Z,18.33
2019-03-19T02:59:13.845Z,22.60
2019-03-19T03:01:47.226Z,23.33
2019-03-19T03:04:19.059Z,22.27
2019-03-19T03:06:49.818Z,25.33
2019-03-19T03:09:22.070Z,18.60
2019-03-19T03:11:52.571Z,16.73
2019-03-19T03:14:23.491Z,20.73
2019-03-19T03:16:53.656Z,18.30
2019-03-19T03:19:26.644Z,27.10
2019-03-19T03:21:58.950Z,23.47
2019-03-19T03:24:31.777Z,19.67
2019-03-19T03:27:03.405Z,23.03
2019-03-19T03:29:35.404Z,23.67
2019-03-19T03:32:05.938Z,21.90
2019-03-19T03:34:38.300Z,17.67
2019-03-19T03:37:10.420Z,19.80
2019-03-19T03:39:41.917Z,21.50
2019-03-19T03:42:12.122Z,26.23
2019-03-19T03:44:42.679Z,22.70
2019-03-19T03:47:14.713Z,28.90
2019-03-19T03:49:47.771Z,24.27
2019-03-19T03:52:18.273Z,22.13
2019-03-19T03:54:50.516Z,27.53
2019-03-19T03:57:21.683Z,21.47
2019-03-19T03:59:52.399Z,20.57
2019-03-19T04:02:22.575Z,26.70
2019-03-19T04:04:52.716Z,21.33
2019-03-19T04:07:22.880Z,23.67
2019-03-19T04:09:53.546Z,19.50
2019-03-19T04:12:24.133Z,22.07
2019-03-19T04:14:54.802Z,21.87
2019-03-19T04:17:24.974Z,16.53
2019-03-19T04:19:55.983Z,19.37
2019-03-19T04:22:26.854Z,21.47
2019-03-19T04:24:57.439Z,24.37
2019-03-19T04:27:28.637Z,25.13
2019-03-19T04:30:02.208Z,18.93
2019-03-19T04:32:34.472Z,22.03
2019-03-19T04:35:06.887Z,18.87
2019-03-19T04:37:40.820Z,22.70
2019-03-19T04:40:12.002Z,17.63
2019-03-19T04:42:44.294Z,14.83
2019-03-19T04:45:18.835Z,28.57
2019-03-19T04:47:50.010Z,29.30
2019-03-19T04:50:22.044Z,23.13
2019-03-19T04:52:53.263Z,22.20
2019-03-19T04:55:23.499Z,20.87
2019-03-19T04:57:54.666Z,21.67
2019-03-19T05:00:26.071Z,21.03
2019-03-19T05:02:57.014Z,17.67
2019-03-19T05:05:28.528Z,29.13
2019-03-19T05:08:03.476Z,25.30
2019-03-19T05:10:35.719Z,17.97
2019-03-19T05:13:06.610Z,17.47
2019-03-19T05:15:41.048Z,23.07
2019-03-19T05:18:11.542Z,20.77
2019-03-19T05:20:43.059Z,22.60
2019-03-19T05:23:13.868Z,19.20
2019-03-19T05:25:47.126Z,26.97
2019-03-19T05:28:18.506Z,21.43
2019-03-19T05:30:53.025Z,25.07
2019-03-19T05:33:23.969Z,18.57
2019-03-19T05:35:55.784Z,21.23
2019-03-19T05:38:28.226Z,25.90
2019-03-19T05:41:00.925Z,20.40
2019-03-19T05:43:32.013Z,20.70
2019-03-19T05:46:04.444Z,21.77
2019-03-19T05:48:34.666Z,23.90
2019-03-19T05:51:05.420Z,23.80
2019-03-19T05:53:36.566Z,19.47
2019-03-19T05:56:13.774Z,24.07
2019-03-19T05:58:47.070Z,20.03
2019-03-19T06:01:19.813Z,21.93
2019-03-19T06:03:51.803Z,24.27
2019-03-19T06:06:27.092Z,20.10
2019-03-19T06:09:07.142Z,20.63
2019-03-19T06:11:38.036Z,25.27
2019-03-19T06:14:12.760Z,24.23
2019-03-19T06:16:45.357Z,29.67
2019-03-19T06:19:17.538Z,17.23
2019-03-19T06:21:50.718Z,19.93
2019-03-19T06:24:22.424Z,20.53
2019-03-19T06:26:53.216Z,21.00
2019-03-19T06:29:23.732Z,23.83
2019-03-19T06:31:55.401Z,25.70
2019-03-19T06:34:27.276Z,16.50
2019-03-19T06:36:59.503Z,27.60
2019-03-19T06:39:32.530Z,18.93
2019-03-19T06:42:03.466Z,21.30
2019-03-19T06:44:35.970Z,22.53
2019-03-19T06:47:09.476Z,20.43
2019-03-19T06:49:40.040Z,24.43
2019-03-19T06:52:11.871Z,17.77
2019-03-19T06:54:42.366Z,26.70
2019-03-19T06:57:16.700Z,23.23
2019-03-19T06:59:48.626Z,24.47
2019-03-19T07:02:20.581Z,23.30
2019-03-19T07:04:52.144Z,25.27
2019-03-19T07:07:25.193Z,22.93
2019-03-19T07:09:55.354Z,34.10
2019-03-19T07:12:27.966Z,22.83
2019-03-19T07:14:59.464Z,27.30
2019-03-19T07:17:31.649Z,23.60
2019-03-19T07:20:02.635Z,24.70
2019-03-19T07:22:34.669Z,24.90
2019-03-19T07:25:07.340Z,26.73
2019-03-19T07:27:39.273Z,25.97
2019-03-19T07:30:25.416Z,32.93
2019-03-19T07:32:58.124Z,25.83
2019-03-19T07:35:29.704Z,30.63
2019-03-19T07:38:00.985Z,26.70
2019-03-19T07:40:34.078Z,24.30
2019-03-19T07:43:06.152Z,33.13
2019-03-19T07:45:36.918Z,26.43
2019-03-19T07:48:08.463Z,24.40
2019-03-19T07:50:39.052Z,27.47
2019-03-19T07:53:09.580Z,32.10
2019-03-19T07:55:40.665Z,31.60
2019-03-19T07:58:12.303Z,28.03
2019-03-19T08:00:45.213Z,17.63
2019-03-19T08:03:18.156Z,21.67
2019-03-19T08:05:48.819Z,26.57
2019-03-19T08:08:19.095Z,23.87
2019-03-19T08:10:50.630Z,25.67
2019-03-19T08:13:24.628Z,25.57
2019-03-19T08:15:58.053Z,25.63
2019-03-19T08:18:29.888Z,36.27
2019-03-19T08:21:05.697Z,28.00
2019-03-19T08:23:40.565Z,21.50
2019-03-19T08:26:13.296Z,42.63
2019-03-19T08:28:55.022Z,26.90
2019-03-19T08:31:19.314Z,25.63
2019-03-19T08:33:55.363Z,25.43
2019-03-19T08:36:27.562Z,20.80
2019-03-19T08:38:59.377Z,24.47
2019-03-19T08:41:31.955Z,29.47
2019-03-19T08:44:03.187Z,27.43
2019-03-19T08:46:33.736Z,26.33
2019-03-19T08:49:06.470Z,40.73
2019-03-19T08:51:38.197Z,28.93
2019-03-19T08:54:09.398Z,83.63
2019-03-19T08:56:40.857Z,34.30
2019-03-19T08:59:25.466Z,35.77
2019-03-19T09:01:55.480Z,60.73
2019-03-19T09:04:28.116Z,31.50
2019-03-19T09:06:59.163Z,34.87
2019-03-19T09:09:33.599Z,42.27
2019-03-19T09:12:08.459Z,28.10
2019-03-19T09:14:45.208Z,26.07
2019-03-19T09:17:19.583Z,31.13
2019-03-19T09:19:57.487Z,20.97
2019-03-19T09:22:31.704Z,24.67
2019-03-19T09:25:04.881Z,21.63
2019-03-19T09:27:40.581Z,26.17
2019-03-19T09:30:16.630Z,29.50
2019-03-19T09:32:48.341Z,30.47
2019-03-19T09:35:19.895Z,41.20
2019-03-19T09:37:58.435Z,28.33
2019-03-19T09:40:27.127Z,27.87
2019-03-19T09:42:58.359Z,25.30
2019-03-19T09:45:33.037Z,21.27
2019-03-19T09:48:06.449Z,20.67
2019-03-19T09:50:38.661Z,16.47
2019-03-19T09:53:09.972Z,24.63
2019-03-19T09:55:42.275Z,16.63
2019-03-19T09:58:13.332Z,22.87
2019-03-19T10:00:46.129Z,17.40
2019-03-19T10:03:18.659Z,18.83
2019-03-19T10:05:52.271Z,18.30
2019-03-19T10:08:23.210Z,15.00
2019-03-19T10:10:54.416Z,10.47
2019-03-19T10:13:27.456Z,13.77
2019-03-19T10:15:58.692Z,15.47
2019-03-19T10:18:30.916Z,18.03
2019-03-19T10:21:02.683Z,18.87
2019-03-19T10:23:34.718Z,16.07
2019-03-19T10:26:10.228Z,20.63
2019-03-19T10:28:59.297Z,28.60
2019-03-19T10:31:36.572Z,15.43
2019-03-19T10:34:10.182Z,15.07
2019-03-19T10:36:46.517Z,27.83
2019-03-19T10:39:21.319Z,14.07
2019-03-19T10:41:54.341Z,15.90
2019-03-19T10:44:26.685Z,17.47
2019-03-19T10:46:57.820Z,16.80
2019-03-19T10:49:28.419Z,18.77
2019-03-19T10:52:01.162Z,19.77
2019-03-19T10:54:31.757Z,14.93
2019-03-19T10:57:02.099Z,9.97
2019-03-19T10:59:32.765Z,13.03
2019-03-19T11:02:04.379Z,13.10
2019-03-19T11:04:34.847Z,10.37
2019-03-19T11:07:07.490Z,10.30
2019-03-19T11:09:38.485Z,16.97
2019-03-19T11:12:10.656Z,9.30
2019-03-19T11:14:41.765Z,8.97
2019-03-19T11:17:12.766Z,9.90
2019-03-19T11:19:42.979Z,9.57
2019-03-19T11:22:13.674Z,9.23
2019-03-19T11:24:45.240Z,13.73
2019-03-19T11:27:15.578Z,11.90
2019-03-19T11:29:47.896Z,11.93
2019-03-19T11:32:19.319Z,11.90
2019-03-19T11:34:52.495Z,12.50
2019-03-19T11:37:25.974Z,11.07
2019-03-19T11:39:59.254Z,10.20
2019-03-19T11:42:30.999Z,10.33
2019-03-19T11:45:02.141Z,11.83
2019-03-19T11:47:34.774Z,12.23
2019-03-19T11:50:08.131Z,10.30
2019-03-19T11:52:40.255Z,11.40
2019-03-19T11:55:14.018Z,9.60
2019-03-19T11:57:46.164Z,9.57
2019-03-19T12:00:28.774Z,13.30
2019-03-19T12:03:10.890Z,25.53
2019-03-19T12:05:32.700Z,25.10
2019-03-19T12:08:03.192Z,15.27
2019-03-19T12:10:35.860Z,15.60
2019-03-19T12:13:08.288Z,17.00
2019-03-19T12:15:38.910Z,12.07
2019-03-19T12:18:10.722Z,11.97
2019-03-19T12:20:41.260Z,10.90
2019-03-19T12:23:11.452Z,13.23
2019-03-19T12:25:42.866Z,12.47
2019-03-19T12:28:13.813Z,14.20
2019-03-19T12:30:46.664Z,9.23
2019-03-19T12:33:18.245Z,10.67
2019-03-19T12:35:48.511Z,11.60
2019-03-19T12:38:19.072Z,9.60
2019-03-19T12:40:52.986Z,8.23
2019-03-19T12:43:23.637Z,10.10
2019-03-19T12:45:54.283Z,12.03
2019-03-19T12:48:26.226Z,10.90
2019-03-19T12:50:56.474Z,10.63
2019-03-19T12:53:27.967Z,8.00
2019-03-19T12:55:58.607Z,13.60
2019-03-19T12:58:29.736Z,10.27
2019-03-19T13:00:59.938Z,10.67
2019-03-19T13:03:30.471Z,9.30
2019-03-19T13:06:00.679Z,9.60
2019-03-19T13:08:30.901Z,11.63
2019-03-19T13:11:01.146Z,6.63
2019-03-19T13:13:31.907Z,8.95
2019-03-19T13:16:02.442Z,15.75
2019-03-19T13:18:33.673Z,8.13
2019-03-19T13:21:03.841Z,9.80
2019-03-19T13:23:34.019Z,8.58
2019-03-19T13:26:05.047Z,7.17
2019-03-19T13:28:35.810Z,7.45
2019-03-19T13:31:08.460Z,10.48
2019-03-19T13:33:39.746Z,8.23
2019-03-19T13:36:10.402Z,6.92
2019-03-19T13:38:43.242Z,12.85
2019-03-19T13:41:14.005Z,7.62
2019-03-19T13:43:44.894Z,10.70
2019-03-19T13:46:15.409Z,8.88
2019-03-19T13:48:47.169Z,10.00
2019-03-19T13:51:18.789Z,8.78
2019-03-19T13:53:57.231Z,11.90
2019-03-19T13:56:33.123Z,9.43
2019-03-19T13:59:11.132Z,9.80
2019-03-19T14:01:44.115Z,8.03
2019-03-19T14:04:15.905Z,9.43
2019-03-19T14:06:46.696Z,11.50
2019-03-19T14:09:18.496Z,8.10
2019-03-19T14:11:48.698Z,10.72
2019-03-19T14:14:19.799Z,9.13
2019-03-19T14:16:50.000Z,10.78
2019-03-19T14:19:20.188Z,12.75
2019-03-19T14:21:52.054Z,13.18
2019-03-19T14:24:22.739Z,11.28
2019-03-19T14:26:56.297Z,11.88
2019-03-19T14:29:27.765Z,11.33
2019-03-19T14:31:59.142Z,8.88
2019-03-19T14:34:30.109Z,9.88
2019-03-19T14:37:01.045Z,10.00
2019-03-19T14:39:31.214Z,8.55
2019-03-19T14:42:01.923Z,9.40
2019-03-19T14:44:34.171Z,10.10
2019-03-19T14:47:05.014Z,10.83
2019-03-19T14:49:46.079Z,7.57
2019-03-19T14:52:07.941Z,13.50
2019-03-19T14:54:38.142Z,10.83
2019-03-19T14:57:08.353Z,11.07
2019-03-19T14:59:39.289Z,12.43
2019-03-19T15:02:09.490Z,10.07
2019-03-19T15:04:40.713Z,9.23
2019-03-19T15:07:10.898Z,14.70
2019-03-19T15:09:41.102Z,8.90
2019-03-19T15:12:13.560Z,15.03
2019-03-19T15:14:48.616Z,12.93
2019-03-19T15:17:19.025Z,10.87
2019-03-19T15:19:49.266Z,12.90
2019-03-19T15:22:19.475Z,9.17
2019-03-19T15:24:50.533Z,9.40
2019-03-19T15:27:21.644Z,11.37
2019-03-19T15:29:52.402Z,8.60
2019-03-19T15:32:27.163Z,9.50
2019-03-19T15:34:57.188Z,10.27
2019-03-19T15:37:27.365Z,12.00
2019-03-19T15:39:58.078Z,14.07
2019-03-19T15:42:32.708Z,12.90
2019-03-19T15:45:04.362Z,11.60
2019-03-19T15:47:34.634Z,13.53
2019-03-19T15:50:10.916Z,14.10
2019-03-19T15:52:42.002Z,11.93
2019-03-19T15:55:13.582Z,13.27
2019-03-19T15:57:43.859Z,11.50
2019-03-19T16:00:15.599Z,12.80
2019-03-19T16:02:46.661Z,11.50
2019-03-19T16:05:17.473Z,15.97
2019-03-19T16:07:52.004Z,11.60
2019-03-19T16:10:23.696Z,14.23
2019-03-19T16:12:54.191Z,17.97
2019-03-19T16:15:24.477Z,17.17
2019-03-19T16:17:55.430Z,15.37
2019-03-19T16:20:28.162Z,13.03
2019-03-19T16:22:58.413Z,13.00
2019-03-19T16:25:28.566Z,14.33
2019-03-19T16:28:00.775Z,8.67
2019-03-19T16:30:33.481Z,15.20
2019-03-19T16:33:05.475Z,15.30
2019-03-19T16:35:35.700Z,14.00
2019-03-19T16:38:07.430Z,14.60
2019-03-19T16:40:42.900Z,16.57
2019-03-19T16:43:21.809Z,14.80
2019-03-19T16:45:52.417Z,13.57
2019-03-19T16:48:23.050Z,13.40
2019-03-19T16:50:56.224Z,15.13
2019-03-19T16:53:26.810Z,13.97
2019-03-19T16:55:57.947Z,12.37
2019-03-19T16:58:28.422Z,15.20
2019-03-19T17:00:59.365Z,15.93
2019-03-19T17:03:29.595Z,18.57
2019-03-19T17:06:00.209Z,15.73
2019-03-19T17:08:30.424Z,19.17
2019-03-19T17:11:03.835Z,15.80
2019-03-19T17:13:34.070Z,16.63
2019-03-19T17:16:04.375Z,14.10
2019-03-19T17:18:34.615Z,15.57
2019-03-19T17:21:05.785Z,15.10
2019-03-19T17:23:35.956Z,21.50
2019-03-19T17:26:09.300Z,19.20
2019-03-19T17:28:41.397Z,14.10
2019-03-19T17:31:13.397Z,21.33
2019-03-19T17:33:45.067Z,20.30
2019-03-19T17:36:16.314Z,19.63
2019-03-19T17:38:46.899Z,20.73
2019-03-19T17:41:18.016Z,16.53
2019-03-19T17:43:49.160Z,18.70
2019-03-19T17:46:20.931Z,19.27
2019-03-19T17:48:52.326Z,15.67
2019-03-19T17:51:23.955Z,14.87
2019-03-19T17:53:57.510Z,17.83
2019-03-19T17:56:46.846Z,15.43
2019-03-19T17:59:20.377Z,18.63
2019-03-19T18:01:52.108Z,17.30
2019-03-19T18:04:22.325Z,18.00
2019-03-19T18:06:52.510Z,18.90
2019-03-19T18:09:23.825Z,22.00
2019-03-19T18:11:55.872Z,20.57
2019-03-19T18:14:28.841Z,21.30
2019-03-19T18:16:59.381Z,19.40
2019-03-19T18:19:30.442Z,20.03
2019-03-19T18:22:01.916Z,20.63
2019-03-19T18:24:32.203Z,24.30
2019-03-19T18:27:02.407Z,26.30
2019-03-19T18:29:35.592Z,21.33
2019-03-19T18:32:06.195Z,22.03
2019-03-19T18:34:37.530Z,29.57
2019-03-19T18:37:09.019Z,21.00
2019-03-19T18:39:40.696Z,20.13
2019-03-19T18:42:12.196Z,24.03
2019-03-19T18:44:43.649Z,19.10
2019-03-19T18:47:14.206Z,21.77
2019-03-19T18:49:44.803Z,24.60
2019-03-19T18:52:16.405Z,20.90
2019-03-19T18:54:50.348Z,21.57
2019-03-19T18:57:21.630Z,20.40
2019-03-19T18:59:53.723Z,23.37
2019-03-19T19:02:25.333Z,20.03
2019-03-19T19:05:19.817Z,22.80
2019-03-19T19:07:51.685Z,25.63
2019-03-19T19:10:23.085Z,15.60
2019-03-19T19:12:54.867Z,21.03
2019-03-19T19:15:26.300Z,21.23
2019-03-19T19:17:56.834Z,20.40
2019-03-19T19:20:29.788Z,19.10
2019-03-19T19:23:03.047Z,19.53
2019-03-19T19:25:34.153Z,15.37
2019-03-19T19:28:04.640Z,19.90
2019-03-19T19:30:38.231Z,20.57
2019-03-19T19:33:08.471Z,17.37
2019-03-19T19:35:40.046Z,24.13
2019-03-19T19:38:10.567Z,29.30
2019-03-19T19:40:41.898Z,24.00
2019-03-19T19:43:12.052Z,28.63
2019-03-19T19:45:43.648Z,24.43
2019-03-19T19:48:14.309Z,33.13
2019-03-19T19:50:53.289Z,28.73
2019-03-19T19:53:27.590Z,17.37
2019-03-19T19:55:58.214Z,24.50
2019-03-19T19:58:28.793Z,23.43
2019-03-19T20:00:59.957Z,23.70
2019-03-19T20:03:31.090Z,24.83
2019-03-19T20:06:01.848Z,22.33
2019-03-19T20:08:32.100Z,26.27
2019-03-19T20:11:02.299Z,26.70
2019-03-19T20:13:32.581Z,24.70
2019-03-19T20:16:03.574Z,28.90
2019-03-19T20:18:34.666Z,24.53
2019-03-19T20:21:05.475Z,25.57
2019-03-19T20:23:45.301Z,32.40
2019-03-19T20:26:17.522Z,24.33
2019-03-19T20:28:48.665Z,29.17
2019-03-19T20:31:20.452Z,31.70
2019-03-19T20:33:50.620Z,27.43
2019-03-19T20:36:21.281Z,25.93
2019-03-19T20:38:52.653Z,29.33
2019-03-19T20:41:23.205Z,32.53
2019-03-19T20:43:54.344Z,36.60
2019-03-19T20:46:26.133Z,29.00
2019-03-19T20:48:59.027Z,24.97
2019-03-19T20:51:30.063Z,29.23
2019-03-19T20:54:00.210Z,30.83
2019-03-19T20:56:42.832Z,30.83
2019-03-19T20:59:15.889Z,47.97
2019-03-19T21:01:47.125Z,39.57
2019-03-19T21:04:17.702Z,39.00
2019-03-19T21:06:49.089Z,39.17
2019-03-19T21:09:21.171Z,32.53
2019-03-19T21:11:53.447Z,35.20
2019-03-19T21:14:25.553Z,40.37
2019-03-19T21:17:02.104Z,41.03
2019-03-19T21:19:33.760Z,43.03
2019-03-19T21:22:04.872Z,54.27
2019-03-19T21:24:35.088Z,42.27
2019-03-19T21:27:05.327Z,43.50
2019-03-19T21:29:36.065Z,57.73
2019-03-19T21:32:07.872Z,42.20
2019-03-19T21:34:38.635Z,38.37
2019-03-19T21:37:10.141Z,33.63
2019-03-19T21:39:40.523Z,31.63
2019-03-19T21:42:12.348Z,32.00
2019-03-19T21:44:43.517Z,40.23
2019-03-19T21:47:15.510Z,35.40
2019-03-19T21:49:47.606Z,34.33
2019-03-19T21:52:18.287Z,36.17
2019-03-19T21:54:48.541Z,37.00
2019-03-19T21:57:18.855Z,35.13
2019-03-19T21:59:50.167Z,38.03
2019-03-19T22:02:21.949Z,43.37
2019-03-19T22:04:53.851Z,33.20
2019-03-19T22:07:24.148Z,31.23
2019-03-19T22:09:55.209Z,34.40
2019-03-19T22:12:25.487Z,33.60
2019-03-19T22:14:55.967Z,31.30
2019-03-19T22:17:27.364Z,26.67
2019-03-19T22:19:58.570Z,27.70
2019-03-19T22:22:29.922Z,30.37
2019-03-19T22:25:01.026Z,30.30
2019-03-19T22:27:31.630Z,33.30
2019-03-19T22:30:01.861Z,30.73
2019-03-19T22:32:34.782Z,27.67
2019-03-19T22:35:05.719Z,32.60
2019-03-19T22:37:37.802Z,24.13
2019-03-19T22:40:11.781Z,25.50
2019-03-19T22:42:43.153Z,24.43
2019-03-19T22:45:14.944Z,23.60
2019-03-19T22:47:46.834Z,29.77
2019-03-19T22:50:18.048Z,21.33
2019-03-19T22:52:48.431Z,21.20
2019-03-19T22:55:28.591Z,27.47
2019-03-19T22:57:52.794Z,23.13
2019-03-19T23:00:40.297Z,25.70
2019-03-19T23:03:12.924Z,24.00
2019-03-19T23:05:43.850Z,20.20
2019-03-19T23:08:14.456Z,19.33
2019-03-19T23:10:45.076Z,23.03
2019-03-19T23:13:17.675Z,22.93
2019-03-19T23:15:47.941Z,21.27
2019-03-19T23:18:18.492Z,22.53
2019-03-19T23:20:54.333Z,20.33
2019-03-19T23:23:24.922Z,20.67
2019-03-19T23:25:55.954Z,25.03
2019-03-19T23:28:26.146Z,29.77
2019-03-19T23:30:57.336Z,17.97
2019-03-19T23:33:27.970Z,25.60
2019-03-19T23:35:59.281Z,23.43
2019-03-19T23:38:32.467Z,24.97
2019-03-19T23:41:03.181Z,21.80
2019-03-19T23:43:33.352Z,21.13
2019-03-19T23:46:03.602Z,20.93
2019-03-19T23:48:33.862Z,20.83
2019-03-19T23:51:04.507Z,18.00
2019-03-19T23:53:34.738Z,22.80
2019-03-19T23:56:05.616Z,21.63
2019-03-19T23:58:36.146Z,20.00
